createdAt,value
2019-04-29T00:04:05.737Z,65.30
2019-04-29T00:09:13.808Z,65.34
2019-04-29T00:14:17.435Z,65.36
2019-04-29T00:19:38.556Z,64.93
2019-04-29T00:24:42.110Z,64.46
2019-04-29T00:29:45.496Z,64.59
2019-04-29T00:34:48.884Z,64.81
2019-04-29T00:40:09.743Z,65.06
2019-04-29T00:45:14.337Z,65.28
2019-04-29T00:50:17.722Z,65.51
2019-04-29T00:55:22.744Z,65.64
2019-04-29T01:00:36.575Z,65.89
2019-04-29T01:05:39.959Z,65.99
2019-04-29T01:10:43.347Z,66.16
2019-04-29T01:15:46.734Z,66.36
2019-04-29T01:20:50.191Z,66.51
2019-04-29T01:25:55.210Z,66.45
2019-04-29T01:31:09.992Z,66.43
2019-04-29T01:36:17.730Z,66.16
2019-04-29T01:41:25.784Z,65.96
2019-04-29T01:46:29.713Z,66.00
2019-04-29T01:51:33.112Z,66.30
2019-04-29T01:56:36.487Z,66.68
2019-04-29T02:01:39.877Z,66.75
2019-04-29T02:06:43.265Z,66.75
2019-04-29T02:11:46.654Z,66.76
2019-04-29T02:16:50.042Z,66.98
2019-04-29T02:22:12.898Z,66.79
2019-04-29T02:27:16.288Z,66.43
2019-04-29T02:32:19.673Z,66.30
2019-04-29T02:37:24.937Z,66.20
2019-04-29T02:42:46.009Z,66.02
2019-04-29T02:47:49.404Z,66.07
2019-04-29T02:52:53.030Z,65.96
2019-04-29T02:57:58.057Z,65.90
2019-04-29T03:03:08.730Z,65.50
2019-04-29T03:08:12.439Z,65.76
2019-04-29T03:13:15.901Z,65.75
2019-04-29T03:18:20.765Z,65.81
2019-04-29T03:23:26.004Z,65.93
2019-04-29T03:28:29.459Z,65.92
2019-04-29T03:33:32.927Z,65.88
2019-04-29T03:38:36.306Z,65.94
2019-04-29T03:43:39.712Z,66.13
2019-04-29T03:48:43.089Z,66.21
2019-04-29T03:53:46.478Z,66.30
2019-04-29T03:58:49.866Z,66.58
2019-04-29T04:04:03.562Z,66.51
2019-04-29T04:09:08.660Z,66.44
2019-04-29T04:14:12.047Z,66.35
2019-04-29T04:19:15.506Z,66.53
2019-04-29T04:24:18.901Z,66.36
2019-04-29T04:29:22.296Z,66.29
2019-04-29T04:34:25.681Z,65.99
2019-04-29T04:39:30.952Z,66.18
2019-04-29T04:44:49.239Z,66.15
2019-04-29T04:49:52.666Z,66.18
2019-04-29T04:54:56.074Z,66.52
2019-04-29T04:59:59.447Z,66.58
2019-04-29T05:05:02.836Z,66.29
2019-04-29T05:10:06.289Z,66.03
2019-04-29T05:15:09.823Z,66.04
2019-04-29T05:20:13.354Z,65.96
2019-04-29T05:25:16.984Z,66.23
2019-04-29T05:30:20.618Z,66.48
2019-04-29T05:35:40.219Z,66.63
2019-04-29T05:40:50.100Z,66.42
2019-04-29T05:46:07.160Z,66.47
2019-04-29T05:51:27.283Z,66.57
2019-04-29T05:56:31.751Z,66.45
2019-04-29T06:01:35.140Z,66.44
2019-04-29T06:06:38.540Z,66.37
2019-04-29T06:11:41.939Z,66.47
2019-04-29T06:16:45.330Z,66.38
2019-04-29T06:21:48.726Z,66.42
2019-04-29T06:26:52.362Z,66.05
2019-04-29T06:31:55.992Z,66.06
2019-04-29T06:36:59.380Z,65.13
2019-04-29T06:42:02.769Z,64.70
2019-04-29T06:47:06.166Z,64.52
2019-04-29T06:52:09.560Z,64.13
2019-04-29T06:57:12.955Z,63.61
2019-04-29T07:02:16.600Z,62.71
2019-04-29T07:07:19.996Z,62.33
2019-04-29T07:12:23.394Z,61.49
2019-04-29T07:17:26.792Z,61.79
2019-04-29T07:22:31.198Z,62.07
2019-04-29T07:27:42.798Z,60.22
2019-04-29T07:32:42.109Z,61.13
2019-04-29T07:37:44.907Z,59.54
2019-04-29T07:42:48.540Z,59.06
2019-04-29T07:47:56.615Z,59.01
2019-04-29T07:52:58.623Z,59.62
2019-04-29T07:58:02.022Z,58.96
2019-04-29T08:03:07.662Z,59.02
2019-04-29T08:08:11.336Z,59.94
2019-04-29T08:13:15.167Z,59.42
2019-04-29T08:18:18.799Z,58.93
2019-04-29T08:23:22.194Z,58.26
2019-04-29T08:28:25.596Z,58.53
2019-04-29T08:33:28.989Z,59.52
2019-04-29T08:38:32.388Z,58.77
2019-04-29T08:43:57.823Z,57.89
2019-04-29T08:49:01.033Z,58.36
2019-04-29T08:54:03.886Z,57.29
2019-04-29T08:59:07.282Z,56.35
2019-04-29T09:04:10.684Z,55.08
2019-04-29T09:09:28.844Z,55.54
2019-04-29T09:14:19.430Z,56.46
2019-04-29T09:19:22.826Z,54.89
2019-04-29T09:24:26.225Z,56.43
2019-04-29T09:29:38.937Z,54.84
2019-04-29T09:34:42.331Z,54.97
2019-04-29T09:39:47.199Z,54.36
2019-04-29T09:45:08.068Z,54.75
2019-04-29T09:50:11.700Z,54.07
2019-04-29T09:55:19.906Z,52.84
2019-04-29T10:00:40.817Z,54.03
2019-04-29T10:05:52.793Z,54.68
2019-04-29T10:10:57.623Z,53.45
2019-04-29T10:16:07.726Z,54.14
2019-04-29T10:21:16.722Z,52.20
2019-04-29T10:26:17.939Z,52.82
2019-04-29T10:31:22.938Z,52.23
2019-04-29T10:36:26.568Z,53.44
2019-04-29T10:41:36.054Z,52.21
2019-04-29T10:46:50.084Z,51.33
2019-04-29T10:51:57.952Z,52.18
2019-04-29T10:56:59.343Z,51.94
2019-04-29T11:02:14.314Z,51.77
2019-04-29T11:07:26.327Z,52.65
2019-04-29T11:12:24.947Z,51.92
2019-04-29T11:17:28.811Z,50.97
2019-04-29T11:22:38.233Z,49.20
2019-04-29T11:27:40.661Z,51.49
2019-04-29T11:32:51.568Z,52.12
2019-04-29T11:37:59.656Z,51.44
2019-04-29T11:43:00.139Z,52.94
2019-04-29T11:48:03.772Z,54.24
2019-04-29T11:53:08.736Z,57.36
2019-04-29T11:58:19.507Z,57.62
2019-04-29T12:03:29.970Z,58.02
2019-04-29T12:08:33.367Z,59.69
2019-04-29T12:13:50.267Z,58.08
2019-04-29T12:18:58.210Z,57.95
2019-04-29T12:24:01.882Z,55.46
2019-04-29T12:29:05.333Z,56.40
2019-04-29T12:34:19.487Z,58.43
2019-04-29T12:39:44.958Z,58.10
2019-04-29T12:44:50.767Z,59.75
2019-04-29T12:49:54.168Z,61.01
2019-04-29T12:55:01.727Z,61.86
2019-04-29T13:00:07.702Z,61.34
2019-04-29T13:05:10.159Z,59.91
2019-04-29T13:10:21.139Z,58.21
2019-04-29T13:15:48.442Z,56.97
2019-04-29T13:20:52.124Z,58.43
2019-04-29T13:25:55.877Z,63.76
2019-04-29T13:30:59.374Z,64.69
2019-04-29T13:36:02.826Z,66.66
2019-04-29T13:41:13.635Z,67.33
2019-04-29T13:46:15.836Z,67.12
2019-04-29T13:51:35.343Z,68.02
2019-04-29T13:56:34.955Z,67.46
2019-04-29T14:01:33.668Z,67.80
2019-04-29T14:06:39.629Z,66.70
2019-04-29T14:11:43.020Z,66.95
2019-04-29T14:16:47.540Z,66.14
2019-04-29T14:21:51.775Z,66.34
2019-04-29T14:26:55.238Z,66.01
2019-04-29T14:32:01.347Z,65.63
2019-04-29T14:37:19.660Z,65.87
2019-04-29T14:42:20.768Z,67.07
2019-04-29T14:47:25.893Z,66.15
2019-04-29T14:52:29.211Z,67.33
2019-04-29T14:57:32.610Z,68.03
2019-04-29T15:02:36.276Z,67.29
2019-04-29T15:07:39.706Z,67.81
2019-04-29T15:12:51.758Z,68.45
2019-04-29T15:17:51.495Z,69.22
2019-04-29T15:22:55.275Z,68.57
2019-04-29T15:27:58.664Z,68.38
2019-04-29T15:33:02.087Z,68.75
2019-04-29T15:38:05.497Z,68.89
2019-04-29T15:43:09.232Z,69.28
2019-04-29T15:48:12.805Z,69.34
2019-04-29T15:53:16.207Z,70.38
2019-04-29T15:58:22.575Z,71.26
2019-04-29T16:03:24.761Z,71.63
2019-04-29T16:08:32.722Z,70.92
2019-04-29T16:13:36.191Z,70.33
2019-04-29T16:18:39.772Z,70.41
2019-04-29T16:23:43.403Z,70.76
2019-04-29T16:28:46.804Z,71.18
2019-04-29T16:33:54.608Z,72.55
2019-04-29T16:38:55.317Z,72.71
2019-04-29T16:43:59.028Z,72.92
2019-04-29T16:49:02.490Z,73.05
2019-04-29T16:54:05.881Z,73.00
2019-04-29T16:59:09.688Z,73.13
2019-04-29T17:04:13.118Z,73.20
2019-04-29T17:09:23.051Z,72.92
2019-04-29T17:14:23.599Z,73.23
2019-04-29T17:19:26.935Z,72.90
2019-04-29T17:24:30.337Z,73.16
2019-04-29T17:29:55.549Z,73.04
2019-04-29T17:35:00.057Z,73.10
2019-04-29T17:40:05.399Z,73.38
2019-04-29T17:45:12.255Z,73.15
2019-04-29T17:50:30.427Z,73.45
2019-04-29T17:55:38.750Z,73.80
2019-04-29T18:00:59.425Z,73.60
2019-04-29T18:06:10.734Z,73.19
2019-04-29T18:11:15.006Z,73.25
2019-04-29T18:16:26.061Z,73.24
2019-04-29T18:21:27.077Z,73.10
2019-04-29T18:26:32.110Z,73.04
2019-04-29T18:31:35.806Z,73.44
2019-04-29T18:36:39.193Z,73.55
2019-04-29T18:41:42.581Z,73.48
2019-04-29T18:46:53.396Z,74.13
2019-04-29T18:51:51.105Z,74.04
2019-04-29T18:56:55.908Z,74.39
2019-04-29T19:02:01.015Z,74.82
2019-04-29T19:07:05.426Z,74.99
2019-04-29T19:12:09.026Z,75.38
2019-04-29T19:17:12.666Z,75.51
2019-04-29T19:22:16.191Z,75.80
2019-04-29T19:27:19.591Z,76.47
2019-04-29T19:32:24.676Z,76.39
2019-04-29T19:37:32.230Z,76.38
2019-04-29T19:42:35.922Z,76.23
2019-04-29T19:47:38.545Z,76.04
2019-04-29T19:52:41.938Z,76.02
2019-04-29T19:57:47.988Z,75.93
2019-04-29T20:02:51.206Z,76.26
2019-04-29T20:07:58.341Z,76.17
2019-04-29T20:13:00.348Z,76.27
2019-04-29T20:18:26.094Z,76.47
2019-04-29T20:23:28.076Z,76.70
2019-04-29T20:28:31.653Z,76.58
2019-04-29T20:33:35.286Z,76.64
2019-04-29T20:38:39.303Z,76.58
2019-04-29T20:43:42.934Z,76.36
2019-04-29T20:48:50.450Z,76.78
2019-04-29T20:54:09.112Z,77.23
2019-04-29T20:59:15.322Z,77.49
2019-04-29T21:04:30.992Z,77.51
2019-04-29T21:09:27.471Z,77.40
2019-04-29T21:14:33.956Z,77.22
2019-04-29T21:19:36.171Z,77.40
2019-04-29T21:24:39.571Z,77.21
2019-04-29T21:29:42.966Z,77.15
2019-04-29T21:34:51.070Z,77.32
2019-04-29T21:40:07.138Z,77.35
2019-04-29T21:45:12.051Z,77.43
2019-04-29T21:50:17.030Z,77.76
2019-04-29T21:55:25.142Z,77.58
2019-04-29T22:00:26.024Z,77.71
2019-04-29T22:05:29.428Z,77.61
2019-04-29T22:10:35.024Z,77.98
2019-04-29T22:15:42.318Z,78.19
2019-04-29T22:20:44.461Z,78.01
2019-04-29T22:25:47.864Z,77.86
2019-04-29T22:30:54.788Z,77.92
2019-04-29T22:35:56.375Z,78.03
2019-04-29T22:41:01.409Z,77.90
2019-04-29T22:46:09.279Z,78.27
2019-04-29T22:51:13.925Z,78.17
2019-04-29T22:56:15.990Z,78.26
2019-04-29T23:01:19.392Z,78.23
2019-04-29T23:06:23.031Z,78.31
2019-04-29T23:11:26.432Z,78.36
2019-04-29T23:16:31.553Z,78.57
2019-04-29T23:21:47.251Z,78.37
2019-04-29T23:26:50.683Z,78.53
2019-04-29T23:31:55.388Z,78.42
2019-04-29T23:36:58.865Z,78.55
2019-04-29T23:42:06.423Z,78.62
2019-04-29T23:47:10.255Z,79.00
2019-04-29T23:52:13.460Z,78.91
2019-04-29T23:57:23.547Z,78.73
